首页
METAR-TAF:

METAR-TAF

机场 :

温尼伯詹姆斯·阿姆斯特朗·理查森国际机场

温尼伯, 曼尼托巴, 加拿大

纬度: 49-54N, 经度: 097-14W, 海拔: 239米

当前天气观测

该预报发布于29分钟前的21:00 UTC
风速18节,风向西北,有时为25节阵风
温度 5°C
湿度 52%
气压 1023 hPa
能見度: 24.1公里
多云层高于4100英尺

METAR: CYWG 222100Z 31018G25KT 15SM BKN041 05/M04 A3021 RMK SC7 SLP243

时间: 16:29 (21:29 UTC)

预报

该预报发布于3小时和51分钟前的17:38 UTC
预报有效从22日的 18点(UTC)到 23日的 18点(UTC)
风速18节,风向北转西北,有时为28节阵风
能見度: 10公里
多云层高于3000英尺
成为
从 22日的 23点(UTC)到 23日的 01点(UTC)
风速10节,风向,有时为20节阵风
从 23日的 0400点(UTC)
风速8节,风向
能見度: 10公里
散云层高于3000英尺
成为
从 23日的 08点(UTC)到 23日的 10点(UTC)
风速6节,风向西
从 23日的 1700点(UTC)
风速8节,风向南转西南
能見度: 10公里
天空无云

TAF: CYWG 221738Z 2218/2318 33018G28KT P6SM BKN030 BECMG 2223/2301 35010G20KT FM230400 36008KT P6SM SCT030 BECMG 2308/2310 26006KT FM231700 20008KT P6SM SKC RMK NXT FCST BY 230000Z

超过4000个机场的气象观测和天气预报(METAR&TAF报告)。

可查询的气象台以黄色和红色小点在地图上表示。

将鼠标移到小点上方,可查看气象台名称。

然后点击查看天气观测和预报。

如需切换地图:点击带黑十字的绿色按钮放大地图;点击带横线的绿色按钮缩小地图;或者点击绿色箭头查看邻近地区的地图。


METAR-TAF: